sensor_id;sensor_type;location;lat;lon;timestamp;temperature;humidity
15617;DHT22;7908;51.688;7.130;2022-12-20T00:01:35;9.30;99.90
15617;DHT22;7908;51.688;7.130;2022-12-20T00:04:05;9.30;99.90
15617;DHT22;7908;51.688;7.130;2022-12-20T00:06:34;9.30;99.90
15617;DHT22;7908;51.688;7.130;2022-12-20T00:09:05;9.30;99.90
15617;DHT22;7908;51.688;7.130;2022-12-20T00:11:35;9.40;99.90
15617;DHT22;7908;51.688;7.130;2022-12-20T00:14:05;9.40;99.90
15617;DHT22;7908;51.688;7.130;2022-12-20T00:16:36;9.40;99.90
15617;DHT22;7908;51.688;7.130;2022-12-20T00:19:06;9.40;99.90
15617;DHT22;7908;51.688;7.130;2022-12-20T00:21:35;9.40;99.90
15617;DHT22;7908;51.688;7.130;2022-12-20T00:24:06;9.40;99.90
15617;DHT22;7908;51.688;7.130;2022-12-20T00:26:34;9.40;99.90
15617;DHT22;7908;51.688;7.130;2022-12-20T00:29:04;9.40;99.90
15617;DHT22;7908;51.688;7.130;2022-12-20T00:31:35;9.40;99.90
15617;DHT22;7908;51.688;7.130;2022-12-20T00:34:04;9.40;99.90
15617;DHT22;7908;51.688;7.130;2022-12-20T00:36:34;9.40;99.90
15617;DHT22;7908;51.688;7.130;2022-12-20T00:39:03;9.40;99.90
15617;DHT22;7908;51.688;7.130;2022-12-20T00:41:32;9.40;99.90
15617;DHT22;7908;51.688;7.130;2022-12-20T00:44:03;9.40;99.90
15617;DHT22;7908;51.688;7.130;2022-12-20T00:46:32;9.40;99.90
15617;DHT22;7908;51.688;7.130;2022-12-20T00:49:03;9.50;99.90
15617;DHT22;7908;51.688;7.130;2022-12-20T00:51:33;9.50;99.90
15617;DHT22;7908;51.688;7.130;2022-12-20T00:54:04;9.50;99.90
15617;DHT22;7908;51.688;7.130;2022-12-20T00:56:32;9.50;99.90
15617;DHT22;7908;51.688;7.130;2022-12-20T00:59:01;9.50;99.90
15617;DHT22;7908;51.688;7.130;2022-12-20T01:01:31;9.50;99.90
15617;DHT22;7908;51.688;7.130;2022-12-20T01:04:02;9.40;99.90
15617;DHT22;7908;51.688;7.130;2022-12-20T01:06:31;9.50;99.90
15617;DHT22;7908;51.688;7.130;2022-12-20T01:09:02;9.50;99.90
15617;DHT22;7908;51.688;7.130;2022-12-20T01:11:32;9.50;99.90
15617;DHT22;7908;51.688;7.130;2022-12-20T01:14:06;9.50;99.90
15617;DHT22;7908;51.688;7.130;2022-12-20T01:16:40;9.60;99.90
15617;DHT22;7908;51.688;7.130;2022-12-20T01:19:13;9.60;99.90
15617;DHT22;7908;51.688;7.130;2022-12-20T01:21:42;9.60;99.90
15617;DHT22;7908;51.688;7.130;2022-12-20T01:24:11;9.50;99.90
15617;DHT22;7908;51.688;7.130;2022-12-20T01:26:41;9.50;99.90
15617;DHT22;7908;51.688;7.130;2022-12-20T01:29:09;9.50;99.90
15617;DHT22;7908;51.688;7.130;2022-12-20T01:31:38;9.50;99.90
15617;DHT22;7908;51.688;7.130;2022-12-20T01:34:07;9.50;99.90
15617;DHT22;7908;51.688;7.130;2022-12-20T01:36:37;9.50;99.90
15617;DHT22;7908;51.688;7.130;2022-12-20T01:39:08;9.40;99.90
15617;DHT22;7908;51.688;7.130;2022-12-20T01:41:39;9.40;99.90
15617;DHT22;7908;51.688;7.130;2022-12-20T01:47:11;9.40;99.90
15617;DHT22;7908;51.688;7.130;2022-12-20T01:49:44;9.40;99.90
15617;DHT22;7908;51.688;7.130;2022-12-20T01:52:18;9.40;99.90
15617;DHT22;7908;51.688;7.130;2022-12-20T01:54:50;9.40;99.90
15617;DHT22;7908;51.688;7.130;2022-12-20T01:57:23;9.40;99.90
15617;DHT22;7908;51.688;7.130;2022-12-20T01:59:53;9.40;99.90
15617;DHT22;7908;51.688;7.130;2022-12-20T02:02:23;9.50;99.90
15617;DHT22;7908;51.688;7.130;2022-12-20T02:04:51;9.50;99.90
15617;DHT22;7908;51.688;7.130;2022-12-20T02:07:25;9.50;99.90
15617;DHT22;7908;51.688;7.130;2022-12-20T02:09:55;9.50;99.90
15617;DHT22;7908;51.688;7.130;2022-12-20T02:12:26;9.50;99.90
15617;DHT22;7908;51.688;7.130;2022-12-20T02:15:07;9.50;99.90
15617;DHT22;7908;51.688;7.130;2022-12-20T02:17:47;9.50;99.90
15617;DHT22;7908;51.688;7.130;2022-12-20T02:20:57;9.50;99.90
15617;DHT22;7908;51.688;7.130;2022-12-20T02:29:36;9.50;99.90
15617;DHT22;7908;51.688;7.130;2022-12-20T02:32:11;9.50;99.90
15617;DHT22;7908;51.688;7.130;2022-12-20T02:34:42;9.50;99.90
15617;DHT22;7908;51.688;7.130;2022-12-20T02:37:11;9.50;99.90
15617;DHT22;7908;51.688;7.130;2022-12-20T02:39:41;9.60;99.90
15617;DHT22;7908;51.688;7.130;2022-12-20T02:42:13;9.60;99.90
15617;DHT22;7908;51.688;7.130;2022-12-20T02:44:45;9.60;99.90
15617;DHT22;7908;51.688;7.130;2022-12-20T02:47:36;9.60;99.90
15617;DHT22;7908;51.688;7.130;2022-12-20T02:50:08;9.60;99.90
15617;DHT22;7908;51.688;7.130;2022-12-20T02:52:38;9.60;99.90
15617;DHT22;7908;51.688;7.130;2022-12-20T02:55:08;9.60;99.90
15617;DHT22;7908;51.688;7.130;2022-12-20T02:57:44;9.60;99.90
15617;DHT22;7908;51.688;7.130;2022-12-20T03:00:15;9.60;99.90
15617;DHT22;7908;51.688;7.130;2022-12-20T03:02:46;9.60;99.90
15617;DHT22;7908;51.688;7.130;2022-12-20T03:05:36;9.60;99.90
15617;DHT22;7908;51.688;7.130;2022-12-20T03:08:10;9.60;99.90
15617;DHT22;7908;51.688;7.130;2022-12-20T03:10:39;9.60;99.90
15617;DHT22;7908;51.688;7.130;2022-12-20T03:13:07;9.60;99.90
15617;DHT22;7908;51.688;7.130;2022-12-20T03:15:36;9.60;99.90
15617;DHT22;7908;51.688;7.130;2022-12-20T03:18:06;9.60;99.90
15617;DHT22;7908;51.688;7.130;2022-12-20T03:20:35;9.60;99.90
15617;DHT22;7908;51.688;7.130;2022-12-20T03:23:04;9.50;99.90
15617;DHT22;7908;51.688;7.130;2022-12-20T03:25:32;9.50;99.90
15617;DHT22;7908;51.688;7.130;2022-12-20T03:28:01;9.50;99.90
15617;DHT22;7908;51.688;7.130;2022-12-20T03:30:29;9.50;99.90
15617;DHT22;7908;51.688;7.130;2022-12-20T03:32:58;9.40;99.90
15617;DHT22;7908;51.688;7.130;2022-12-20T03:35:28;9.40;99.90
15617;DHT22;7908;51.688;7.130;2022-12-20T03:37:56;9.30;99.90
15617;DHT22;7908;51.688;7.130;2022-12-20T03:40:25;9.30;99.90
15617;DHT22;7908;51.688;7.130;2022-12-20T03:42:53;9.30;99.90
15617;DHT22;7908;51.688;7.130;2022-12-20T03:45:22;9.30;99.90
15617;DHT22;7908;51.688;7.130;2022-12-20T03:47:50;9.30;99.90
15617;DHT22;7908;51.688;7.130;2022-12-20T03:50:19;9.30;99.90
15617;DHT22;7908;51.688;7.130;2022-12-20T03:52:48;9.30;99.90
15617;DHT22;7908;51.688;7.130;2022-12-20T03:55:17;9.40;99.90
15617;DHT22;7908;51.688;7.130;2022-12-20T03:57:45;9.40;99.90
15617;DHT22;7908;51.688;7.130;2022-12-20T04:00:15;9.40;99.90
15617;DHT22;7908;51.688;7.130;2022-12-20T04:02:44;9.40;99.90
15617;DHT22;7908;51.688;7.130;2022-12-20T04:05:13;9.40;99.90
15617;DHT22;7908;51.688;7.130;2022-12-20T04:07:42;9.40;99.90
15617;DHT22;7908;51.688;7.130;2022-12-20T04:10:12;9.40;99.90
15617;DHT22;7908;51.688;7.130;2022-12-20T04:12:41;9.50;99.90
15617;DHT22;7908;51.688;7.130;2022-12-20T04:15:10;9.50;99.90
15617;DHT22;7908;51.688;7.130;2022-12-20T04:17:39;9.50;99.90
15617;DHT22;7908;51.688;7.130;2022-12-20T04:20:11;9.50;99.90
15617;DHT22;7908;51.688;7.130;2022-12-20T04:22:46;9.50;99.90
15617;DHT22;7908;51.688;7.130;2022-12-20T04:25:19;9.50;99.90
15617;DHT22;7908;51.688;7.130;2022-12-20T04:27:48;9.50;99.90
15617;DHT22;7908;51.688;7.130;2022-12-20T04:30:17;9.50;99.90
15617;DHT22;7908;51.688;7.130;2022-12-20T04:32:45;9.50;99.90
15617;DHT22;7908;51.688;7.130;2022-12-20T04:35:14;9.50;99.90
15617;DHT22;7908;51.688;7.130;2022-12-20T04:37:42;9.50;99.90
15617;DHT22;7908;51.688;7.130;2022-12-20T04:40:11;9.50;99.90
15617;DHT22;7908;51.688;7.130;2022-12-20T04:42:41;9.50;99.90
15617;DHT22;7908;51.688;7.130;2022-12-20T04:45:10;9.50;99.90
15617;DHT22;7908;51.688;7.130;2022-12-20T04:47:41;9.50;99.90
15617;DHT22;7908;51.688;7.130;2022-12-20T04:50:09;9.40;99.90
15617;DHT22;7908;51.688;7.130;2022-12-20T04:52:38;9.40;99.90
15617;DHT22;7908;51.688;7.130;2022-12-20T04:55:24;9.40;99.90
15617;DHT22;7908;51.688;7.130;2022-12-20T04:57:54;9.40;99.90
15617;DHT22;7908;51.688;7.130;2022-12-20T05:00:31;9.30;99.90
15617;DHT22;7908;51.688;7.130;2022-12-20T05:03:00;9.30;99.90
15617;DHT22;7908;51.688;7.130;2022-12-20T05:05:29;9.30;99.90
15617;DHT22;7908;51.688;7.130;2022-12-20T05:07:57;9.20;99.90
15617;DHT22;7908;51.688;7.130;2022-12-20T05:10:26;9.20;99.90
15617;DHT22;7908;51.688;7.130;2022-12-20T05:12:56;9.20;99.90
15617;DHT22;7908;51.688;7.130;2022-12-20T05:15:27;9.20;99.90
15617;DHT22;7908;51.688;7.130;2022-12-20T05:17:56;9.20;99.90
15617;DHT22;7908;51.688;7.130;2022-12-20T05:20:25;9.20;99.90
15617;DHT22;7908;51.688;7.130;2022-12-20T05:22:54;9.20;99.90
15617;DHT22;7908;51.688;7.130;2022-12-20T05:25:44;9.20;99.90
15617;DHT22;7908;51.688;7.130;2022-12-20T05:28:32;9.20;99.90
15617;DHT22;7908;51.688;7.130;2022-12-20T05:31:01;9.30;99.90
15617;DHT22;7908;51.688;7.130;2022-12-20T05:33:30;9.30;99.90
15617;DHT22;7908;51.688;7.130;2022-12-20T05:36:00;9.30;99.90
15617;DHT22;7908;51.688;7.130;2022-12-20T05:38:29;9.30;99.90
15617;DHT22;7908;51.688;7.130;2022-12-20T05:40:57;9.30;99.90
15617;DHT22;7908;51.688;7.130;2022-12-20T05:43:26;9.30;99.90
15617;DHT22;7908;51.688;7.130;2022-12-20T05:45:56;9.30;99.90
15617;DHT22;7908;51.688;7.130;2022-12-20T05:48:24;9.30;99.90
15617;DHT22;7908;51.688;7.130;2022-12-20T05:50:53;9.30;99.90
15617;DHT22;7908;51.688;7.130;2022-12-20T05:53:21;9.30;99.90
15617;DHT22;7908;51.688;7.130;2022-12-20T05:55:51;9.30;99.90
15617;DHT22;7908;51.688;7.130;2022-12-20T05:58:20;9.30;99.90
15617;DHT22;7908;51.688;7.130;2022-12-20T06:00:49;9.30;99.90
15617;DHT22;7908;51.688;7.130;2022-12-20T06:03:19;9.30;99.90
15617;DHT22;7908;51.688;7.130;2022-12-20T06:05:48;9.30;99.90
15617;DHT22;7908;51.688;7.130;2022-12-20T06:08:17;9.30;99.90
15617;DHT22;7908;51.688;7.130;2022-12-20T06:10:47;9.40;99.90
15617;DHT22;7908;51.688;7.130;2022-12-20T06:13:17;9.40;99.90
15617;DHT22;7908;51.688;7.130;2022-12-20T06:15:46;9.40;99.90
15617;DHT22;7908;51.688;7.130;2022-12-20T06:18:14;9.30;99.90
15617;DHT22;7908;51.688;7.130;2022-12-20T06:20:48;9.40;99.90
15617;DHT22;7908;51.688;7.130;2022-12-20T06:23:17;9.30;99.90
15617;DHT22;7908;51.688;7.130;2022-12-20T06:25:47;9.30;99.90
15617;DHT22;7908;51.688;7.130;2022-12-20T06:28:15;9.30;99.90
15617;DHT22;7908;51.688;7.130;2022-12-20T06:30:51;9.30;99.90
15617;DHT22;7908;51.688;7.130;2022-12-20T06:33:20;9.30;99.90
15617;DHT22;7908;51.688;7.130;2022-12-20T06:35:51;9.30;99.90
15617;DHT22;7908;51.688;7.130;2022-12-20T06:38:19;9.30;99.90
15617;DHT22;7908;51.688;7.130;2022-12-20T06:40:47;9.30;99.90
15617;DHT22;7908;51.688;7.130;2022-12-20T06:43:16;9.30;99.90
15617;DHT22;7908;51.688;7.130;2022-12-20T06:45:45;9.30;99.90
15617;DHT22;7908;51.688;7.130;2022-12-20T06:48:14;9.30;99.90
15617;DHT22;7908;51.688;7.130;2022-12-20T06:50:47;9.40;99.90
15617;DHT22;7908;51.688;7.130;2022-12-20T06:53:23;9.40;99.90
15617;DHT22;7908;51.688;7.130;2022-12-20T06:55:52;9.50;99.90
15617;DHT22;7908;51.688;7.130;2022-12-20T06:58:21;9.50;99.90
15617;DHT22;7908;51.688;7.130;2022-12-20T07:00:49;9.50;99.90
15617;DHT22;7908;51.688;7.130;2022-12-20T07:03:18;9.50;99.90
15617;DHT22;7908;51.688;7.130;2022-12-20T07:05:50;9.50;99.90
15617;DHT22;7908;51.688;7.130;2022-12-20T07:08:19;9.50;99.90
15617;DHT22;7908;51.688;7.130;2022-12-20T07:10:49;9.50;99.90
15617;DHT22;7908;51.688;7.130;2022-12-20T07:13:18;9.50;99.90
15617;DHT22;7908;51.688;7.130;2022-12-20T07:15:48;9.50;99.90
15617;DHT22;7908;51.688;7.130;2022-12-20T07:18:16;9.50;99.90
15617;DHT22;7908;51.688;7.130;2022-12-20T07:20:45;9.50;99.90
15617;DHT22;7908;51.688;7.130;2022-12-20T07:23:13;9.60;99.90
15617;DHT22;7908;51.688;7.130;2022-12-20T07:25:42;9.60;99.90
15617;DHT22;7908;51.688;7.130;2022-12-20T07:28:12;9.60;99.90
15617;DHT22;7908;51.688;7.130;2022-12-20T07:30:40;9.50;99.90
15617;DHT22;7908;51.688;7.130;2022-12-20T07:33:09;9.50;99.90
15617;DHT22;7908;51.688;7.130;2022-12-20T07:35:39;9.50;99.90
15617;DHT22;7908;51.688;7.130;2022-12-20T07:38:07;9.50;99.90
15617;DHT22;7908;51.688;7.130;2022-12-20T07:40:39;9.50;99.90
15617;DHT22;7908;51.688;7.130;2022-12-20T07:43:08;9.50;99.90
15617;DHT22;7908;51.688;7.130;2022-12-20T07:45:38;9.60;99.90
15617;DHT22;7908;51.688;7.130;2022-12-20T07:48:07;9.60;99.90
15617;DHT22;7908;51.688;7.130;2022-12-20T07:50:45;9.70;99.90
15617;DHT22;7908;51.688;7.130;2022-12-20T07:53:14;9.70;99.90
15617;DHT22;7908;51.688;7.130;2022-12-20T07:55:44;9.70;99.90
15617;DHT22;7908;51.688;7.130;2022-12-20T07:58:15;9.80;99.90
15617;DHT22;7908;51.688;7.130;2022-12-20T08:00:46;9.80;99.90
15617;DHT22;7908;51.688;7.130;2022-12-20T08:03:17;9.80;99.90
15617;DHT22;7908;51.688;7.130;2022-12-20T08:05:50;9.80;99.90
15617;DHT22;7908;51.688;7.130;2022-12-20T08:08:20;9.90;99.90
15617;DHT22;7908;51.688;7.130;2022-12-20T08:10:49;9.90;99.90
15617;DHT22;7908;51.688;7.130;2022-12-20T08:13:18;9.90;99.90
15617;DHT22;7908;51.688;7.130;2022-12-20T08:15:48;9.90;99.90
15617;DHT22;7908;51.688;7.130;2022-12-20T08:18:17;9.90;99.90
15617;DHT22;7908;51.688;7.130;2022-12-20T08:20:45;9.90;99.90
15617;DHT22;7908;51.688;7.130;2022-12-20T08:23:14;9.90;99.90
15617;DHT22;7908;51.688;7.130;2022-12-20T08:25:43;9.90;99.90
15617;DHT22;7908;51.688;7.130;2022-12-20T08:28:12;9.90;99.90
15617;DHT22;7908;51.688;7.130;2022-12-20T08:30:40;10.00;99.90
15617;DHT22;7908;51.688;7.130;2022-12-20T08:33:11;10.10;99.90
15617;DHT22;7908;51.688;7.130;2022-12-20T08:35:39;10.10;99.90
15617;DHT22;7908;51.688;7.130;2022-12-20T08:38:08;10.20;99.90
15617;DHT22;7908;51.688;7.130;2022-12-20T08:40:36;10.20;99.90
15617;DHT22;7908;51.688;7.130;2022-12-20T08:43:05;10.30;99.90
15617;DHT22;7908;51.688;7.130;2022-12-20T08:45:36;10.30;99.90
15617;DHT22;7908;51.688;7.130;2022-12-20T08:48:08;10.30;99.90
15617;DHT22;7908;51.688;7.130;2022-12-20T08:50:38;10.30;99.90
15617;DHT22;7908;51.688;7.130;2022-12-20T08:53:06;10.40;99.90
15617;DHT22;7908;51.688;7.130;2022-12-20T08:55:35;10.40;99.90
15617;DHT22;7908;51.688;7.130;2022-12-20T08:58:04;10.30;99.90
15617;DHT22;7908;51.688;7.130;2022-12-20T09:00:32;10.40;99.90
15617;DHT22;7908;51.688;7.130;2022-12-20T09:03:01;10.40;99.90
15617;DHT22;7908;51.688;7.130;2022-12-20T09:05:30;10.50;99.90
15617;DHT22;7908;51.688;7.130;2022-12-20T09:08:00;10.50;99.90
15617;DHT22;7908;51.688;7.130;2022-12-20T09:10:29;10.50;99.90
15617;DHT22;7908;51.688;7.130;2022-12-20T09:12:58;10.60;99.90
15617;DHT22;7908;51.688;7.130;2022-12-20T09:15:27;10.70;99.90
15617;DHT22;7908;51.688;7.130;2022-12-20T09:17:56;10.70;99.90
15617;DHT22;7908;51.688;7.130;2022-12-20T09:20:27;10.70;99.90
15617;DHT22;7908;51.688;7.130;2022-12-20T09:22:56;10.80;99.90
15617;DHT22;7908;51.688;7.130;2022-12-20T09:25:32;10.80;99.90
15617;DHT22;7908;51.688;7.130;2022-12-20T09:28:01;10.80;99.90
15617;DHT22;7908;51.688;7.130;2022-12-20T09:30:33;10.80;99.90
15617;DHT22;7908;51.688;7.130;2022-12-20T09:33:07;10.90;99.90
15617;DHT22;7908;51.688;7.130;2022-12-20T09:35:43;10.90;99.90
15617;DHT22;7908;51.688;7.130;2022-12-20T09:38:12;10.90;99.90
15617;DHT22;7908;51.688;7.130;2022-12-20T09:40:46;10.90;99.90
15617;DHT22;7908;51.688;7.130;2022-12-20T09:43:16;11.00;99.90
15617;DHT22;7908;51.688;7.130;2022-12-20T09:45:48;11.00;99.90
15617;DHT22;7908;51.688;7.130;2022-12-20T09:48:20;11.00;99.90
15617;DHT22;7908;51.688;7.130;2022-12-20T09:50:58;11.10;99.90
15617;DHT22;7908;51.688;7.130;2022-12-20T09:53:38;11.20;99.90
15617;DHT22;7908;51.688;7.130;2022-12-20T09:56:26;11.20;99.90
15617;DHT22;7908;51.688;7.130;2022-12-20T09:59:00;11.30;99.90
15617;DHT22;7908;51.688;7.130;2022-12-20T10:01:34;11.30;99.90
15617;DHT22;7908;51.688;7.130;2022-12-20T10:04:11;11.30;99.90
15617;DHT22;7908;51.688;7.130;2022-12-20T10:07:02;11.30;99.90
15617;DHT22;7908;51.688;7.130;2022-12-20T10:09:50;11.30;99.90
15617;DHT22;7908;51.688;7.130;2022-12-20T10:12:28;11.30;99.90
15617;DHT22;7908;51.688;7.130;2022-12-20T10:15:14;11.30;99.90
15617;DHT22;7908;51.688;7.130;2022-12-20T10:17:59;11.20;99.90
15617;DHT22;7908;51.688;7.130;2022-12-20T10:20:38;11.20;99.90
15617;DHT22;7908;51.688;7.130;2022-12-20T10:23:14;11.20;99.90
15617;DHT22;7908;51.688;7.130;2022-12-20T10:25:58;11.10;99.90
15617;DHT22;7908;51.688;7.130;2022-12-20T10:28:30;11.10;99.90
15617;DHT22;7908;51.688;7.130;2022-12-20T10:31:02;11.10;99.90
15617;DHT22;7908;51.688;7.130;2022-12-20T10:33:32;11.10;99.90
15617;DHT22;7908;51.688;7.130;2022-12-20T10:36:22;11.00;99.90
15617;DHT22;7908;51.688;7.130;2022-12-20T10:38:54;11.10;99.90
15617;DHT22;7908;51.688;7.130;2022-12-20T10:41:25;11.00;99.90
15617;DHT22;7908;51.688;7.130;2022-12-20T10:43:59;11.00;99.90
15617;DHT22;7908;51.688;7.130;2022-12-20T10:46:39;11.10;99.90
15617;DHT22;7908;51.688;7.130;2022-12-20T10:49:27;11.10;99.90
15617;DHT22;7908;51.688;7.130;2022-12-20T10:51:59;11.10;99.90
15617;DHT22;7908;51.688;7.130;2022-12-20T10:54:31;11.10;99.90
15617;DHT22;7908;51.688;7.130;2022-12-20T10:57:14;11.10;99.90
15617;DHT22;7908;51.688;7.130;2022-12-20T10:59:51;11.10;99.90
15617;DHT22;7908;51.688;7.130;2022-12-20T11:02:30;11.10;99.90
15617;DHT22;7908;51.688;7.130;2022-12-20T11:05:26;11.20;99.90
15617;DHT22;7908;51.688;7.130;2022-12-20T11:08:05;11.20;99.90
15617;DHT22;7908;51.688;7.130;2022-12-20T11:11:14;11.20;99.90
15617;DHT22;7908;51.688;7.130;2022-12-20T11:13:49;11.20;99.90
15617;DHT22;7908;51.688;7.130;2022-12-20T11:16:34;11.20;99.90
15617;DHT22;7908;51.688;7.130;2022-12-20T11:19:20;11.20;99.90
15617;DHT22;7908;51.688;7.130;2022-12-20T11:21:59;11.20;99.90
15617;DHT22;7908;51.688;7.130;2022-12-20T11:24:34;11.30;99.90
15617;DHT22;7908;51.688;7.130;2022-12-20T11:27:26;11.30;99.90
15617;DHT22;7908;51.688;7.130;2022-12-20T11:30:18;11.30;99.90
15617;DHT22;7908;51.688;7.130;2022-12-20T11:33:12;11.40;99.90
15617;DHT22;7908;51.688;7.130;2022-12-20T11:35:51;11.40;99.90
15617;DHT22;7908;51.688;7.130;2022-12-20T11:38:30;11.40;99.90
15617;DHT22;7908;51.688;7.130;2022-12-20T11:41:11;11.40;99.90
15617;DHT22;7908;51.688;7.130;2022-12-20T11:47:16;11.40;99.90
15617;DHT22;7908;51.688;7.130;2022-12-20T11:50:06;11.40;99.90
15617;DHT22;7908;51.688;7.130;2022-12-20T11:52:49;11.40;99.90
15617;DHT22;7908;51.688;7.130;2022-12-20T11:55:23;11.40;99.90
15617;DHT22;7908;51.688;7.130;2022-12-20T11:58:01;11.40;99.90
15617;DHT22;7908;51.688;7.130;2022-12-20T12:00:52;11.40;99.90
15617;DHT22;7908;51.688;7.130;2022-12-20T12:03:29;11.40;99.90
15617;DHT22;7908;51.688;7.130;2022-12-20T12:06:03;11.40;99.90
15617;DHT22;7908;51.688;7.130;2022-12-20T12:08:41;11.40;99.90
15617;DHT22;7908;51.688;7.130;2022-12-20T12:11:18;11.40;99.90
15617;DHT22;7908;51.688;7.130;2022-12-20T12:14:32;11.40;99.90
15617;DHT22;7908;51.688;7.130;2022-12-20T12:17:12;11.40;99.90
15617;DHT22;7908;51.688;7.130;2022-12-20T12:19:54;11.40;99.90
15617;DHT22;7908;51.688;7.130;2022-12-20T12:22:32;11.50;99.90
15617;DHT22;7908;51.688;7.130;2022-12-20T12:25:13;11.50;99.90
15617;DHT22;7908;51.688;7.130;2022-12-20T12:27:46;11.60;99.90
15617;DHT22;7908;51.688;7.130;2022-12-20T12:30:34;11.60;99.90
15617;DHT22;7908;51.688;7.130;2022-12-20T12:33:22;11.60;99.90
15617;DHT22;7908;51.688;7.130;2022-12-20T12:36:36;11.70;99.90
15617;DHT22;7908;51.688;7.130;2022-12-20T12:42:43;11.70;99.90
15617;DHT22;7908;51.688;7.130;2022-12-20T12:45:26;11.70;99.90
15617;DHT22;7908;51.688;7.130;2022-12-20T12:48:07;11.70;99.90
15617;DHT22;7908;51.688;7.130;2022-12-20T12:50:54;11.80;99.90
15617;DHT22;7908;51.688;7.130;2022-12-20T12:53:33;11.80;99.90
15617;DHT22;7908;51.688;7.130;2022-12-20T12:56:29;11.80;99.90
15617;DHT22;7908;51.688;7.130;2022-12-20T13:02:50;11.80;99.90
15617;DHT22;7908;51.688;7.130;2022-12-20T13:05:39;11.80;99.90
15617;DHT22;7908;51.688;7.130;2022-12-20T13:08:16;11.70;99.90
15617;DHT22;7908;51.688;7.130;2022-12-20T13:10:59;11.70;99.90
15617;DHT22;7908;51.688;7.130;2022-12-20T13:13:36;11.70;99.90
15617;DHT22;7908;51.688;7.130;2022-12-20T13:16:12;11.70;99.90
15617;DHT22;7908;51.688;7.130;2022-12-20T13:19:32;11.80;99.90
15617;DHT22;7908;51.688;7.130;2022-12-20T13:22:19;11.80;99.90
15617;DHT22;7908;51.688;7.130;2022-12-20T13:24:57;11.80;99.90
15617;DHT22;7908;51.688;7.130;2022-12-20T13:30:34;11.80;99.90
15617;DHT22;7908;51.688;7.130;2022-12-20T13:33:22;11.80;99.90
15617;DHT22;7908;51.688;7.130;2022-12-20T13:36:02;11.70;99.90
15617;DHT22;7908;51.688;7.130;2022-12-20T13:38:53;11.70;99.90
15617;DHT22;7908;51.688;7.130;2022-12-20T13:41:37;11.60;99.90
15617;DHT22;7908;51.688;7.130;2022-12-20T13:44:32;11.50;99.90
15617;DHT22;7908;51.688;7.130;2022-12-20T13:50:00;11.40;99.90
15617;DHT22;7908;51.688;7.130;2022-12-20T13:52:37;11.30;99.90
15617;DHT22;7908;51.688;7.130;2022-12-20T13:55:20;11.30;99.90
15617;DHT22;7908;51.688;7.130;2022-12-20T13:57:56;11.20;99.90
15617;DHT22;7908;51.688;7.130;2022-12-20T14:00:31;11.20;99.90
15617;DHT22;7908;51.688;7.130;2022-12-20T14:03:24;11.10;99.90
15617;DHT22;7908;51.688;7.130;2022-12-20T14:06:08;11.10;99.90
15617;DHT22;7908;51.688;7.130;2022-12-20T14:08:59;11.00;99.90
15617;DHT22;7908;51.688;7.130;2022-12-20T14:11:29;10.90;99.90
15617;DHT22;7908;51.688;7.130;2022-12-20T14:13:59;10.90;99.90
15617;DHT22;7908;51.688;7.130;2022-12-20T14:16:31;10.80;99.90
15617;DHT22;7908;51.688;7.130;2022-12-20T14:19:04;10.70;99.90
15617;DHT22;7908;51.688;7.130;2022-12-20T14:21:35;10.60;99.90
15617;DHT22;7908;51.688;7.130;2022-12-20T14:24:14;10.50;99.90
15617;DHT22;7908;51.688;7.130;2022-12-20T14:26:51;10.50;99.90
15617;DHT22;7908;51.688;7.130;2022-12-20T14:29:28;10.50;99.90
15617;DHT22;7908;51.688;7.130;2022-12-20T14:32:03;10.40;99.90
15617;DHT22;7908;51.688;7.130;2022-12-20T14:34:36;10.40;99.90
15617;DHT22;7908;51.688;7.130;2022-12-20T14:37:26;10.40;99.90
15617;DHT22;7908;51.688;7.130;2022-12-20T14:40:02;10.30;99.90
15617;DHT22;7908;51.688;7.130;2022-12-20T14:42:40;10.30;99.90
15617;DHT22;7908;51.688;7.130;2022-12-20T14:45:21;10.20;99.90
15617;DHT22;7908;51.688;7.130;2022-12-20T14:47:59;10.20;99.90
15617;DHT22;7908;51.688;7.130;2022-12-20T14:50:32;10.20;99.90
15617;DHT22;7908;51.688;7.130;2022-12-20T14:53:01;10.20;99.90
15617;DHT22;7908;51.688;7.130;2022-12-20T14:55:36;10.10;99.90
15617;DHT22;7908;51.688;7.130;2022-12-20T14:58:28;10.10;99.90
15617;DHT22;7908;51.688;7.130;2022-12-20T15:01:19;10.10;99.90
15617;DHT22;7908;51.688;7.130;2022-12-20T15:03:58;10.00;99.90
15617;DHT22;7908;51.688;7.130;2022-12-20T15:06:32;10.00;99.90
15617;DHT22;7908;51.688;7.130;2022-12-20T15:09:18;10.00;99.90
15617;DHT22;7908;51.688;7.130;2022-12-20T15:11:57;10.00;99.90
15617;DHT22;7908;51.688;7.130;2022-12-20T15:14:33;10.00;99.90
15617;DHT22;7908;51.688;7.130;2022-12-20T15:17:14;10.00;99.90
15617;DHT22;7908;51.688;7.130;2022-12-20T15:19:56;10.00;99.90
15617;DHT22;7908;51.688;7.130;2022-12-20T15:22:41;10.00;99.90
15617;DHT22;7908;51.688;7.130;2022-12-20T15:25:15;10.00;99.90
15617;DHT22;7908;51.688;7.130;2022-12-20T15:27:51;10.00;99.90
15617;DHT22;7908;51.688;7.130;2022-12-20T15:30:20;9.90;99.90
15617;DHT22;7908;51.688;7.130;2022-12-20T15:32:52;9.90;99.90
15617;DHT22;7908;51.688;7.130;2022-12-20T15:35:22;9.90;99.90
15617;DHT22;7908;51.688;7.130;2022-12-20T15:37:52;9.90;99.90
15617;DHT22;7908;51.688;7.130;2022-12-20T15:40:22;9.90;99.90
15617;DHT22;7908;51.688;7.130;2022-12-20T15:43:13;9.90;99.90
15617;DHT22;7908;51.688;7.130;2022-12-20T15:45:49;9.90;99.90
15617;DHT22;7908;51.688;7.130;2022-12-20T15:48:29;9.90;99.90
15617;DHT22;7908;51.688;7.130;2022-12-20T15:51:11;9.80;99.90
15617;DHT22;7908;51.688;7.130;2022-12-20T15:53:55;9.90;99.90
15617;DHT22;7908;51.688;7.130;2022-12-20T15:56:26;9.90;99.90
15617;DHT22;7908;51.688;7.130;2022-12-20T15:59:00;9.80;99.90
15617;DHT22;7908;51.688;7.130;2022-12-20T16:01:55;9.80;99.90
15617;DHT22;7908;51.688;7.130;2022-12-20T16:04:38;9.80;99.90
15617;DHT22;7908;51.688;7.130;2022-12-20T16:07:16;9.80;99.90
15617;DHT22;7908;51.688;7.130;2022-12-20T16:09:45;9.80;99.90
15617;DHT22;7908;51.688;7.130;2022-12-20T16:12:22;9.80;99.90
15617;DHT22;7908;51.688;7.130;2022-12-20T16:14:56;9.80;99.90
15617;DHT22;7908;51.688;7.130;2022-12-20T16:17:25;9.80;99.90
15617;DHT22;7908;51.688;7.130;2022-12-20T16:19:55;9.80;99.90
15617;DHT22;7908;51.688;7.130;2022-12-20T16:22:27;9.80;99.90
15617;DHT22;7908;51.688;7.130;2022-12-20T16:24:57;9.80;99.90
15617;DHT22;7908;51.688;7.130;2022-12-20T16:27:25;9.80;99.90
15617;DHT22;7908;51.688;7.130;2022-12-20T16:29:57;9.80;99.90
15617;DHT22;7908;51.688;7.130;2022-12-20T16:32:28;9.90;99.90
15617;DHT22;7908;51.688;7.130;2022-12-20T16:35:00;9.80;99.90
15617;DHT22;7908;51.688;7.130;2022-12-20T16:37:36;9.80;99.90
15617;DHT22;7908;51.688;7.130;2022-12-20T16:42:43;9.80;99.90
15617;DHT22;7908;51.688;7.130;2022-12-20T16:45:17;9.80;99.90
15617;DHT22;7908;51.688;7.130;2022-12-20T16:47:57;9.80;99.90
15617;DHT22;7908;51.688;7.130;2022-12-20T16:50:29;9.70;99.90
15617;DHT22;7908;51.688;7.130;2022-12-20T16:52:59;9.70;99.90
15617;DHT22;7908;51.688;7.130;2022-12-20T16:55:38;9.70;99.90
15617;DHT22;7908;51.688;7.130;2022-12-20T16:58:10;9.70;99.90
15617;DHT22;7908;51.688;7.130;2022-12-20T17:01:18;9.70;99.90
15617;DHT22;7908;51.688;7.130;2022-12-20T17:03:51;9.70;99.90
15617;DHT22;7908;51.688;7.130;2022-12-20T17:06:22;9.70;99.90
15617;DHT22;7908;51.688;7.130;2022-12-20T17:08:53;9.70;99.90